LIME/BGY METAR and TAF weather

Enter ICAO airport designator
Station Type Date Time Source
LIME METAR 2021/09/24 06:20 UTC NOAA

LIME 240620Z 02005KT CAVOK 14/12 Q1019 NOSIG


Station Type Date Time Source
LIME Decoded METAR 2021/09/24 06:20 UTC NOAA

Bergamo / Orio Al Serio, Italy (LIME) 45-40N 009-42E 237M
Sep 24, 2021 - 02:20 AM EDT / 2021.09.24 0620 UTC
Wind: from the NNE (020 degrees) at 6 MPH (5 KT):0
Visibility: greater than 7 mile(s):0
Temperature: 57 F (14 C)
Dew Point: 53 F (12 C)
Relative Humidity: 87%
Pressure (altimeter): 30.09 in. Hg (1019 hPa)
ob: LIME 240620Z 02005KT CAVOK 14/12 Q1019 NOSIG
cycle: 6

Station Type Date Time Source
LIME TAF 2021/09/24 06:26 UTC NOAA

TAF LIME 240500Z 2406/2506 VRB05KT CAVOK

Example: see airport list